createdAt,value
2018-11-04T00:00:33.969Z,10.57
2018-11-04T00:03:02.367Z,14.27
2018-11-04T00:05:30.746Z,13.57
2018-11-04T00:07:59.175Z,12.50
2018-11-04T00:10:27.542Z,15.23
2018-11-04T00:12:55.938Z,14.77
2018-11-04T00:15:24.315Z,13.23
2018-11-04T00:17:52.706Z,12.27
2018-11-04T00:20:21.150Z,14.70
2018-11-04T00:22:49.519Z,10.70
2018-11-04T00:25:17.896Z,14.67
2018-11-04T00:27:46.330Z,13.87
2018-11-04T00:30:15.665Z,15.47
2018-11-04T00:32:44.575Z,18.00
2018-11-04T00:35:13.141Z,18.53
2018-11-04T00:37:41.550Z,11.67
2018-11-04T00:40:10.099Z,15.10
2018-11-04T00:42:38.602Z,16.83
2018-11-04T00:45:08.250Z,11.90
2018-11-04T00:47:36.907Z,13.83
2018-11-04T00:50:07.542Z,9.80
2018-11-04T00:52:35.944Z,14.07
2018-11-04T00:55:04.339Z,12.10
2018-11-04T00:57:32.837Z,13.10
2018-11-04T01:00:01.209Z,13.47
2018-11-04T01:02:29.667Z,15.63
2018-11-04T01:04:58.038Z,13.00
2018-11-04T01:07:26.433Z,10.63
2018-11-04T01:09:54.839Z,10.03
2018-11-04T01:12:23.225Z,10.60
2018-11-04T01:14:51.622Z,10.77
2018-11-04T01:17:19.996Z,17.80
2018-11-04T01:19:48.443Z,7.57
2018-11-04T01:22:16.810Z,8.27
2018-11-04T01:24:45.838Z,8.87
2018-11-04T01:27:14.226Z,9.07
2018-11-04T01:29:42.622Z,9.90
2018-11-04T01:32:10.990Z,10.90
2018-11-04T01:34:39.379Z,13.93
2018-11-04T01:37:07.753Z,10.60
2018-11-04T01:39:36.147Z,9.03
2018-11-04T01:42:04.844Z,13.00
2018-11-04T01:44:33.298Z,13.50
2018-11-04T01:47:01.671Z,10.23
2018-11-04T01:49:30.078Z,12.67
2018-11-04T01:51:58.455Z,8.10
2018-11-04T01:54:26.851Z,9.00
2018-11-04T01:56:55.217Z,8.83
2018-11-04T01:59:23.605Z,9.47
2018-11-04T02:01:51.978Z,14.97
2018-11-04T02:04:20.374Z,15.70
2018-11-04T02:06:48.761Z,12.67
2018-11-04T02:09:17.153Z,13.40
2018-11-04T02:11:45.542Z,12.30
2018-11-04T02:14:13.938Z,11.50
2018-11-04T02:16:42.582Z,12.83
2018-11-04T02:19:10.970Z,8.77
2018-11-04T02:21:39.333Z,7.57
2018-11-04T02:24:07.730Z,9.40
2018-11-04T02:26:36.111Z,9.57
2018-11-04T02:29:04.700Z,8.90
2018-11-04T02:31:33.066Z,8.83
2018-11-04T02:34:01.471Z,9.20
2018-11-04T02:36:29.843Z,7.20
2018-11-04T02:38:58.251Z,7.63
2018-11-04T02:41:26.644Z,13.00
2018-11-04T02:43:55.047Z,9.67
2018-11-04T02:46:23.455Z,8.47
2018-11-04T02:48:51.859Z,9.57
2018-11-04T02:51:20.231Z,6.83
2018-11-04T02:53:48.611Z,14.63
2018-11-04T02:56:16.990Z,7.60
2018-11-04T02:58:45.386Z,8.27
2018-11-04T03:01:13.774Z,8.27
2018-11-04T03:03:42.138Z,10.10
2018-11-04T03:06:10.526Z,10.80
2018-11-04T03:08:38.894Z,10.30
2018-11-04T03:11:07.274Z,7.33
2018-11-04T03:13:35.655Z,10.13
2018-11-04T03:16:04.046Z,17.83
2018-11-04T03:18:32.421Z,9.03
2018-11-04T03:21:00.810Z,8.90
2018-11-04T03:23:29.181Z,11.63
2018-11-04T03:25:57.664Z,8.30
2018-11-04T03:28:26.035Z,10.90
2018-11-04T03:30:54.415Z,8.20
2018-11-04T03:33:22.797Z,9.70
2018-11-04T03:35:51.187Z,9.40
2018-11-04T03:38:19.561Z,9.63
2018-11-04T03:40:47.978Z,8.43
2018-11-04T03:43:16.347Z,8.13
2018-11-04T03:45:44.754Z,7.07
2018-11-04T03:48:13.135Z,10.80
2018-11-04T03:50:41.514Z,7.20
2018-11-04T03:53:09.879Z,9.60
2018-11-04T03:55:38.562Z,9.13
2018-11-04T03:58:06.927Z,8.27
2018-11-04T04:00:35.322Z,10.73
2018-11-04T04:03:03.700Z,7.90
2018-11-04T04:05:32.129Z,12.00
2018-11-04T04:08:00.482Z,8.90
2018-11-04T04:10:28.885Z,23.97
2018-11-04T04:12:57.275Z,7.80
2018-11-04T04:15:25.679Z,8.00
2018-11-04T04:17:54.045Z,12.07
2018-11-04T04:20:22.457Z,14.10
2018-11-04T04:22:50.836Z,15.37
2018-11-04T04:25:19.225Z,11.60
2018-11-04T04:27:47.581Z,8.87
2018-11-04T04:30:15.975Z,12.10
2018-11-04T04:32:44.347Z,13.70
2018-11-04T04:35:12.747Z,13.47
2018-11-04T04:37:41.615Z,26.73
2018-11-04T04:40:10.324Z,14.93
2018-11-04T04:42:38.694Z,17.27
2018-11-04T04:45:07.064Z,18.67
2018-11-04T04:47:35.667Z,11.30
2018-11-04T04:50:04.258Z,18.17
2018-11-04T04:52:32.638Z,21.03
2018-11-04T04:55:01.012Z,17.57
2018-11-04T04:57:29.406Z,22.90
2018-11-04T04:59:57.779Z,11.50
2018-11-04T05:02:26.187Z,16.30
2018-11-04T05:04:54.559Z,15.80
2018-11-04T05:07:22.954Z,14.97
2018-11-04T05:09:51.336Z,17.97
2018-11-04T05:12:19.728Z,19.77
2018-11-04T05:14:48.123Z,22.70
2018-11-04T05:17:16.523Z,18.43
2018-11-04T05:19:44.891Z,28.87
2018-11-04T05:22:13.291Z,20.10
2018-11-04T05:24:41.661Z,29.83
2018-11-04T05:27:10.056Z,25.77
2018-11-04T05:29:38.421Z,33.23
2018-11-04T05:32:06.919Z,35.53
2018-11-04T05:34:35.295Z,40.83
2018-11-04T05:37:03.690Z,41.60
2018-11-04T05:39:32.058Z,49.80
2018-11-04T05:42:00.478Z,47.33
2018-11-04T05:44:28.859Z,49.40
2018-11-04T05:46:57.262Z,57.53
2018-11-04T05:49:25.628Z,53.63
2018-11-04T05:51:54.019Z,51.60
2018-11-04T05:54:22.399Z,51.63
2018-11-04T05:56:50.789Z,49.53
2018-11-04T05:59:19.162Z,40.97
2018-11-04T06:01:47.577Z,48.33
2018-11-04T06:04:15.963Z,44.60
2018-11-04T06:06:44.353Z,53.47
2018-11-04T06:09:12.727Z,47.33
2018-11-04T06:11:41.144Z,45.33
2018-11-04T06:14:09.506Z,48.93
2018-11-04T06:16:37.892Z,47.10
2018-11-04T06:19:06.407Z,57.83
2018-11-04T06:21:34.815Z,56.70
2018-11-04T06:24:03.191Z,48.60
2018-11-04T06:26:31.613Z,53.83
2018-11-04T06:28:59.986Z,46.40
2018-11-04T06:31:28.360Z,46.97
2018-11-04T06:33:56.759Z,49.90
2018-11-04T06:36:25.139Z,45.17
2018-11-04T06:38:53.534Z,47.13
2018-11-04T06:41:21.936Z,48.27
2018-11-04T06:43:50.326Z,53.73
2018-11-04T06:46:18.708Z,48.70
2018-11-04T06:48:47.107Z,43.73
2018-11-04T06:51:15.479Z,40.53
2018-11-04T06:53:43.870Z,61.23
2018-11-04T06:56:12.238Z,52.43
2018-11-04T06:58:40.631Z,49.23
2018-11-04T07:01:09.050Z,45.00
2018-11-04T07:03:37.575Z,54.13
2018-11-04T07:06:05.943Z,45.07
2018-11-04T07:08:34.331Z,48.93
2018-11-04T07:11:02.704Z,46.00
2018-11-04T07:13:31.099Z,48.83
2018-11-04T07:15:59.475Z,58.40
2018-11-04T07:18:27.863Z,48.60
2018-11-04T07:20:56.244Z,42.30
2018-11-04T07:23:24.643Z,41.57
2018-11-04T07:25:53.007Z,48.57
2018-11-04T07:28:23.054Z,45.53
2018-11-04T07:30:51.439Z,39.87
2018-11-04T07:33:19.834Z,49.27
2018-11-04T07:35:48.207Z,47.07
2018-11-04T07:38:16.603Z,39.83
2018-11-04T07:40:45.000Z,38.93
2018-11-04T07:43:13.395Z,42.20
2018-11-04T07:45:41.771Z,46.70
2018-11-04T07:48:10.183Z,57.80
2018-11-04T07:50:38.740Z,37.80
2018-11-04T07:53:07.079Z,37.47
2018-11-04T07:55:35.454Z,51.40
2018-11-04T07:58:03.842Z,45.73
2018-11-04T08:00:32.211Z,47.80
2018-11-04T08:03:00.602Z,37.80
2018-11-04T08:05:28.980Z,41.50
2018-11-04T08:07:57.369Z,43.97
2018-11-04T08:10:25.751Z,34.03
2018-11-04T08:12:54.151Z,41.17
2018-11-04T08:15:22.517Z,50.00
2018-11-04T08:17:50.933Z,38.83
2018-11-04T08:20:19.304Z,40.57
2018-11-04T08:22:47.675Z,40.20
2018-11-04T08:25:16.079Z,39.63
2018-11-04T08:27:44.490Z,51.33
2018-11-04T08:30:12.893Z,50.53
2018-11-04T08:32:41.271Z,41.70
2018-11-04T08:35:09.682Z,40.83
2018-11-04T08:37:38.051Z,39.30
2018-11-04T08:40:07.056Z,45.53
2018-11-04T08:42:35.376Z,41.53
2018-11-04T08:45:03.836Z,43.23
2018-11-04T08:47:32.202Z,44.07
2018-11-04T08:50:00.604Z,42.90
2018-11-04T08:52:29.052Z,56.67
2018-11-04T08:54:57.689Z,46.53
2018-11-04T08:57:26.063Z,40.73
2018-11-04T08:59:54.491Z,40.17
2018-11-04T09:02:22.871Z,44.40
2018-11-04T09:04:51.263Z,45.87
2018-11-04T09:07:19.630Z,48.33
2018-11-04T09:09:48.047Z,45.70
2018-11-04T09:12:16.573Z,48.53
2018-11-04T09:14:44.971Z,40.27
2018-11-04T09:17:13.344Z,43.23
2018-11-04T09:19:41.739Z,43.70
2018-11-04T09:22:10.243Z,48.60
2018-11-04T09:24:38.598Z,54.17
2018-11-04T09:27:06.971Z,54.37
2018-11-04T09:29:43.687Z,46.30
2018-11-04T09:32:12.055Z,40.83
2018-11-04T09:34:40.524Z,43.47
2018-11-04T09:37:08.880Z,45.03
2018-11-04T09:39:37.271Z,45.27
2018-11-04T09:42:05.955Z,39.47
2018-11-04T09:44:34.351Z,53.37
2018-11-04T09:47:02.718Z,41.23
2018-11-04T09:49:31.123Z,47.97
2018-11-04T09:51:59.490Z,41.43
2018-11-04T09:54:27.890Z,48.10
2018-11-04T09:56:56.262Z,45.73
2018-11-04T09:59:24.659Z,45.30
2018-11-04T10:01:53.030Z,39.50
2018-11-04T10:04:21.397Z,55.20
2018-11-04T10:06:49.791Z,42.43
2018-11-04T10:09:18.154Z,51.97
2018-11-04T10:11:46.555Z,39.60
2018-11-04T10:14:14.927Z,45.83
2018-11-04T10:16:43.332Z,57.83
2018-11-04T10:19:11.857Z,54.13
2018-11-04T10:21:40.131Z,57.40
2018-11-04T10:24:08.510Z,66.67
2018-11-04T10:26:36.901Z,80.97
2018-11-04T10:29:05.590Z,74.87
2018-11-04T10:31:34.004Z,58.67
2018-11-04T10:34:02.523Z,59.70
2018-11-04T10:36:30.922Z,57.90
2018-11-04T10:38:59.291Z,48.10
2018-11-04T10:41:27.710Z,46.33
2018-11-04T10:43:56.081Z,45.20
2018-11-04T10:46:24.480Z,49.60
2018-11-04T10:48:53.007Z,47.43
2018-11-04T10:51:21.403Z,52.87
2018-11-04T10:53:49.774Z,49.27
2018-11-04T10:56:18.170Z,54.37
2018-11-04T10:58:46.577Z,51.70
2018-11-04T11:01:14.975Z,48.30
2018-11-04T11:03:43.358Z,52.17
2018-11-04T11:06:11.767Z,63.23
2018-11-04T11:08:40.134Z,57.20
2018-11-04T11:11:08.647Z,65.93
2018-11-04T11:13:37.026Z,68.63
2018-11-04T11:16:05.643Z,56.03
2018-11-04T11:18:34.019Z,55.60
2018-11-04T11:21:02.425Z,57.03
2018-11-04T11:23:30.798Z,57.93
2018-11-04T11:25:59.189Z,59.83
2018-11-04T11:28:27.579Z,57.40
2018-11-04T11:30:55.983Z,55.47
2018-11-04T11:33:24.363Z,59.37
2018-11-04T11:35:52.863Z,54.60
2018-11-04T11:38:21.242Z,59.90
2018-11-04T11:40:49.671Z,74.50
2018-11-04T11:43:18.054Z,65.30
2018-11-04T11:45:46.436Z,61.77
2018-11-04T11:48:14.844Z,81.27
2018-11-04T11:50:43.229Z,69.40
2018-11-04T11:53:11.815Z,71.23
2018-11-04T11:55:40.191Z,77.40
2018-11-04T11:58:08.691Z,74.00
2018-11-04T12:00:37.080Z,60.30
2018-11-04T12:03:05.778Z,63.47
2018-11-04T12:05:34.155Z,65.83
2018-11-04T12:08:02.552Z,79.70
2018-11-04T12:10:30.931Z,70.23
2018-11-04T12:12:59.344Z,61.63
2018-11-04T12:15:27.736Z,75.10
2018-11-04T12:17:56.189Z,63.10
2018-11-04T12:20:24.541Z,65.87
2018-11-04T12:22:52.943Z,74.23
2018-11-04T12:25:21.323Z,63.13
2018-11-04T12:27:49.720Z,74.70
2018-11-04T12:30:18.095Z,73.13
2018-11-04T12:32:46.635Z,75.87
2018-11-04T12:35:15.118Z,69.07
2018-11-04T12:37:43.588Z,73.17
2018-11-04T12:40:12.946Z,75.13
2018-11-04T12:42:41.343Z,75.93
2018-11-04T12:45:11.154Z,58.20
2018-11-04T12:47:39.541Z,67.63
2018-11-04T12:50:09.103Z,60.97
2018-11-04T12:52:37.535Z,72.43
2018-11-04T12:55:06.326Z,72.33
2018-11-04T12:57:35.094Z,67.47
2018-11-04T13:00:03.884Z,67.33
2018-11-04T13:02:32.287Z,63.80
2018-11-04T13:05:00.663Z,72.30
2018-11-04T13:07:29.103Z,63.17
2018-11-04T13:09:57.588Z,73.53
2018-11-04T13:12:26.414Z,72.03
2018-11-04T13:14:54.791Z,70.93
2018-11-04T13:17:23.182Z,68.03
2018-11-04T13:19:51.555Z,71.83
2018-11-04T13:22:19.963Z,67.33
2018-11-04T13:24:48.338Z,62.47
2018-11-04T13:27:16.734Z,68.33
2018-11-04T13:29:45.111Z,66.73
2018-11-04T13:32:13.513Z,69.63
2018-11-04T13:34:41.874Z,60.77
2018-11-04T13:37:10.278Z,97.47
2018-11-04T13:39:38.692Z,62.33
2018-11-04T13:42:07.085Z,78.20
2018-11-04T13:44:35.540Z,60.03
2018-11-04T13:47:03.928Z,67.87
2018-11-04T13:49:32.436Z,73.00
2018-11-04T13:52:00.734Z,57.97
2018-11-04T13:54:29.278Z,63.30
2018-11-04T13:56:57.646Z,61.17
2018-11-04T13:59:26.043Z,60.43
2018-11-04T14:01:54.421Z,67.40
2018-11-04T14:04:22.819Z,75.30
2018-11-04T14:06:51.198Z,66.90
2018-11-04T14:09:19.589Z,66.40
2018-11-04T14:11:47.976Z,63.40
2018-11-04T14:14:16.385Z,69.83
2018-11-04T14:16:44.770Z,66.30
2018-11-04T14:19:13.639Z,68.10
2018-11-04T14:21:42.006Z,66.63
2018-11-04T14:24:10.423Z,66.43
2018-11-04T14:26:38.831Z,67.87
2018-11-04T14:29:07.230Z,70.83
2018-11-04T14:31:35.619Z,67.23
2018-11-04T14:34:04.070Z,75.00
2018-11-04T14:36:32.440Z,70.13
2018-11-04T14:39:00.856Z,71.43
2018-11-04T14:41:29.260Z,76.13
2018-11-04T14:43:57.663Z,66.37
2018-11-04T14:46:26.047Z,69.53
2018-11-04T14:48:54.446Z,66.87
2018-11-04T14:51:22.846Z,67.73
2018-11-04T14:53:51.266Z,72.57
2018-11-04T14:56:21.831Z,69.03
2018-11-04T14:58:50.231Z,68.90
2018-11-04T15:01:18.643Z,68.63
2018-11-04T15:03:47.060Z,70.73
2018-11-04T15:06:15.443Z,71.90
2018-11-04T15:08:43.865Z,71.93
2018-11-04T15:11:12.292Z,77.80
2018-11-04T15:13:40.711Z,71.33
2018-11-04T15:16:09.083Z,69.37
2018-11-04T15:18:37.567Z,73.67
2018-11-04T15:21:05.883Z,81.07
2018-11-04T15:23:34.287Z,69.13
2018-11-04T15:26:02.667Z,74.40
2018-11-04T15:28:31.067Z,65.50
2018-11-04T15:30:59.462Z,64.97
2018-11-04T15:33:27.852Z,70.37
2018-11-04T15:35:56.251Z,74.50
2018-11-04T15:38:24.677Z,72.27
2018-11-04T15:40:53.087Z,76.83
2018-11-04T15:43:21.462Z,78.90
2018-11-04T15:45:50.056Z,81.93
2018-11-04T15:48:18.435Z,82.53
2018-11-04T15:50:46.831Z,78.93
2018-11-04T15:53:15.211Z,77.17
2018-11-04T15:55:43.621Z,84.50
2018-11-04T15:58:11.998Z,83.77
2018-11-04T16:00:40.396Z,99.80
2018-11-04T16:03:08.787Z,84.70
2018-11-04T16:05:37.205Z,80.80
2018-11-04T16:08:06.402Z,94.27
2018-11-04T16:10:34.811Z,105.77
2018-11-04T16:13:03.195Z,93.40
2018-11-04T16:15:31.594Z,91.73
2018-11-04T16:17:59.985Z,100.13
2018-11-04T16:20:28.396Z,92.53
2018-11-04T16:22:56.775Z,86.93
2018-11-04T16:25:25.222Z,94.33
2018-11-04T16:27:53.582Z,96.30
2018-11-04T16:30:21.987Z,89.13
2018-11-04T16:32:50.371Z,91.63
2018-11-04T16:35:18.830Z,96.23
2018-11-04T16:37:47.349Z,86.70
2018-11-04T16:40:15.647Z,90.33
2018-11-04T16:42:44.015Z,99.87
2018-11-04T16:45:14.336Z,84.67
2018-11-04T16:47:42.716Z,94.70
2018-11-04T16:50:12.226Z,94.70
2018-11-04T16:52:40.894Z,102.77
2018-11-04T16:55:10.314Z,88.83
2018-11-04T16:57:38.698Z,117.57
2018-11-04T17:00:08.131Z,104.73
2018-11-04T17:02:36.966Z,114.47
2018-11-04T17:05:05.626Z,102.07
2018-11-04T17:07:34.015Z,98.60
2018-11-04T17:10:02.424Z,105.07
2018-11-04T17:12:30.800Z,96.50
2018-11-04T17:14:59.198Z,106.10
2018-11-04T17:17:27.577Z,99.23
2018-11-04T17:19:56.019Z,95.20
2018-11-04T17:22:24.431Z,104.73
2018-11-04T17:24:52.834Z,109.53
2018-11-04T17:27:21.239Z,89.63
2018-11-04T17:29:49.623Z,119.97
2018-11-04T17:32:18.027Z,102.13
2018-11-04T17:34:46.406Z,110.73
2018-11-04T17:37:14.806Z,122.43
2018-11-04T17:39:43.177Z,114.40
2018-11-04T17:42:11.607Z,106.37
2018-11-04T17:44:40.068Z,115.30
2018-11-04T17:47:08.415Z,120.83
2018-11-04T17:49:36.803Z,104.27
2018-11-04T17:52:05.222Z,118.43
2018-11-04T17:54:33.638Z,110.23
2018-11-04T17:57:02.047Z,101.57
2018-11-04T17:59:30.432Z,110.37
2018-11-04T18:01:58.835Z,114.87
2018-11-04T18:04:27.226Z,123.33
2018-11-04T18:06:55.633Z,115.50
2018-11-04T18:09:24.008Z,120.30
2018-11-04T18:11:52.406Z,104.73
2018-11-04T18:14:20.796Z,113.77
2018-11-04T18:16:49.207Z,123.20
2018-11-04T18:19:17.601Z,124.60
2018-11-04T18:21:46.117Z,113.57
2018-11-04T18:24:14.495Z,119.27
2018-11-04T18:26:42.950Z,127.27
2018-11-04T18:29:11.299Z,120.87
2018-11-04T18:31:39.727Z,116.97
2018-11-04T18:34:08.124Z,121.53
2018-11-04T18:36:36.517Z,135.83
2018-11-04T18:39:06.770Z,116.43
2018-11-04T18:41:35.343Z,122.93
2018-11-04T18:44:03.779Z,107.33
2018-11-04T18:46:32.196Z,111.27
2018-11-04T18:49:00.588Z,129.93
2018-11-04T18:51:29.324Z,134.27
2018-11-04T18:53:57.702Z,119.67
2018-11-04T18:56:26.110Z,119.63
2018-11-04T18:58:54.515Z,136.77
2018-11-04T19:01:23.208Z,132.53
2018-11-04T19:03:51.591Z,135.20
2018-11-04T19:06:20.091Z,143.93
2018-11-04T19:08:48.576Z,127.03
2018-11-04T19:11:17.010Z,141.10
2018-11-04T19:13:45.418Z,151.93
2018-11-04T19:16:13.802Z,132.50
2018-11-04T19:18:42.486Z,126.47
2018-11-04T19:21:10.838Z,147.03
2018-11-04T19:23:39.246Z,156.07
2018-11-04T19:26:07.658Z,149.87
2018-11-04T19:28:36.104Z,141.20
2018-11-04T19:31:04.524Z,152.40
2018-11-04T19:33:32.916Z,137.27
2018-11-04T19:36:01.303Z,141.77
2018-11-04T19:38:29.736Z,139.40
2018-11-04T19:40:58.178Z,149.93
2018-11-04T19:43:26.593Z,158.87
2018-11-04T19:45:54.983Z,156.17
2018-11-04T19:48:23.396Z,144.77
2018-11-04T19:50:51.817Z,170.20
2018-11-04T19:53:20.248Z,152.60
2018-11-04T19:55:48.633Z,142.97
2018-11-04T19:58:17.048Z,152.43
2018-11-04T20:00:45.431Z,153.43
2018-11-04T20:03:13.839Z,138.83
2018-11-04T20:05:42.227Z,160.73
2018-11-04T20:08:10.639Z,148.57
2018-11-04T20:10:39.076Z,151.00
2018-11-04T20:13:12.790Z,169.50
2018-11-04T20:15:41.167Z,162.70
2018-11-04T20:18:15.032Z,152.57
2018-11-04T20:20:43.561Z,149.50
2018-11-04T20:23:12.141Z,162.03
2018-11-04T20:25:45.895Z,144.63
2018-11-04T20:28:14.743Z,145.07
2018-11-04T20:30:43.728Z,141.73
2018-11-04T20:33:13.761Z,141.17
2018-11-04T20:35:42.146Z,132.10
2018-11-04T20:38:10.560Z,124.43
2018-11-04T20:40:44.282Z,131.93
2018-11-04T20:43:12.678Z,137.83
2018-11-04T20:45:41.057Z,132.93
2018-11-04T20:48:14.795Z,126.90
2018-11-04T20:50:48.422Z,92.77
2018-11-04T20:53:16.823Z,128.80
2018-11-04T20:55:50.500Z,113.00
2018-11-04T20:58:19.113Z,112.27
2018-11-04T21:00:47.413Z,110.73
2018-11-04T21:03:15.814Z,118.00
2018-11-04T21:05:44.194Z,103.90
2018-11-04T21:08:12.595Z,95.80
2018-11-04T21:10:40.976Z,87.90
2018-11-04T21:13:09.436Z,86.17
2018-11-04T21:15:37.836Z,85.57
2018-11-04T21:18:06.332Z,99.70
2018-11-04T21:20:34.734Z,93.20
2018-11-04T21:23:03.111Z,81.67
2018-11-04T21:25:31.569Z,90.90
2018-11-04T21:27:59.970Z,90.17
2018-11-04T21:30:28.355Z,88.33
2018-11-04T21:32:56.744Z,76.40
2018-11-04T21:35:25.143Z,77.97
2018-11-04T21:37:53.619Z,82.20
2018-11-04T21:40:21.994Z,93.33
2018-11-04T21:42:50.530Z,86.33
2018-11-04T21:45:18.787Z,98.63
2018-11-04T21:47:47.166Z,100.23
2018-11-04T21:50:15.558Z,96.03
2018-11-04T21:52:43.944Z,101.53
2018-11-04T21:55:13.348Z,96.77
2018-11-04T21:57:42.783Z,112.37
2018-11-04T22:00:13.031Z,121.43
2018-11-04T22:02:41.605Z,96.73
2018-11-04T22:05:10.610Z,88.77
2018-11-04T22:07:39.397Z,120.60
2018-11-04T22:10:10.030Z,95.50
2018-11-04T22:12:38.599Z,96.00
2018-11-04T22:15:07.091Z,83.07
2018-11-04T22:17:35.655Z,96.50
2018-11-04T22:20:04.328Z,97.07
2018-11-04T22:22:32.716Z,81.37
2018-11-04T22:25:01.119Z,78.93
2018-11-04T22:27:29.495Z,81.80
2018-11-04T22:29:57.886Z,77.67
2018-11-04T22:32:26.262Z,91.27
2018-11-04T22:34:54.662Z,83.67
2018-11-04T22:37:23.051Z,85.40
2018-11-04T22:39:51.462Z,102.03
2018-11-04T22:42:19.974Z,85.63
2018-11-04T22:44:48.295Z,95.10
2018-11-04T22:47:16.687Z,105.37
2018-11-04T22:49:45.096Z,79.10
2018-11-04T22:52:13.475Z,96.57
2018-11-04T22:54:41.886Z,94.10
2018-11-04T22:57:10.262Z,110.00
2018-11-04T22:59:38.655Z,98.87
2018-11-04T23:02:07.037Z,101.20
2018-11-04T23:04:40.895Z,107.00
2018-11-04T23:07:09.280Z,95.50
2018-11-04T23:09:37.703Z,84.23
2018-11-04T23:12:06.176Z,101.47
2018-11-04T23:14:34.551Z,87.40
2018-11-04T23:17:02.947Z,77.57
2018-11-04T23:19:31.324Z,89.20
2018-11-04T23:21:59.733Z,77.83
2018-11-04T23:24:28.125Z,80.80
2018-11-04T23:26:56.535Z,80.73
2018-11-04T23:29:24.923Z,64.27
2018-11-04T23:31:53.326Z,73.47
2018-11-04T23:34:21.710Z,66.50
2018-11-04T23:36:50.127Z,77.73
2018-11-04T23:39:18.506Z,55.03
2018-11-04T23:41:46.931Z,58.13
2018-11-04T23:44:15.311Z,60.80
2018-11-04T23:46:43.707Z,62.30
2018-11-04T23:49:12.711Z,59.47
2018-11-04T23:51:41.102Z,56.07
2018-11-04T23:54:09.514Z,55.20
2018-11-04T23:56:37.911Z,51.53
2018-11-04T23:59:06.291Z,49.63
